Ellicottville, New York
Current Conditions -  °F | °C
As of 9:55 PM on Friday 19 Dec 2014 (Local Time) from KOLE Reporting Station
Overcast Overcast  
Wind Chill: 21°   Ceiling: 800
Heat Index: 21°   Visibility: 10mi
Dew Point: 21°   Wind: 3mph
Humidity: 100%   Direction: 270°W
Pressure: 30.17"   Gusts: NA
Location:  42.28°N, 78.67°W
Report Text: KOLE 200255Z AUTO 27003KT 10SM BKN008 OVC013 M06/M06 A3017 RMK AO2
Loading
Personal Weather Stations






























Interactive Weather Map New forecast layout! Learn more

10-Day Weather Forecast

Advertisements
Track Severe Weather on mobile